Time;durP1;ratioP1;P1;durP2;ratioP2;P2;SDS_P1;SDS_P2;PMS_P1;PMS_P2;Temp;Humidity;BMP_temperature;BMP_pressure;BME280_temperature;BME280_humidity;BME280_pressure;Samples;Min_cycle;Max_cycle;Signal;HPM_P1;HPM_P2
2024/01/21 00:02:14;;;;;;;28.00;14.40;;;;;;;1.12;69.14;101693.98;107369;1288;1002141;-58
2024/01/21 00:04:40;;;;;;;33.90;16.10;;;;;;;1.12;69.12;101693.61;108098;1288;21988;-59
2024/01/21 00:07:07;;;;;;;25.30;14.20;;;;;;;1.11;68.79;101695.64;108112;1282;21991;-58
2024/01/21 00:09:33;;;;;;;25.10;14.00;;;;;;;1.10;68.71;101697.33;108174;1284;21990;-59
2024/01/21 00:11:58;;;;;;;25.10;13.30;;;;;;;1.15;68.81;101696.34;108148;1283;21990;-60
2024/01/21 00:14:24;;;;;;;26.50;14.70;;;;;;;1.13;68.62;101696.95;108126;1283;21995;-58
2024/01/21 00:16:49;;;;;;;24.10;13.80;;;;;;;1.14;68.54;101704.95;108112;1288;22455;-59
2024/01/21 00:19:15;;;;;;;26.90;14.80;;;;;;;1.12;68.52;101702.79;108105;1277;21995;-57
2024/01/21 00:21:40;;;;;;;28.80;15.40;;;;;;;1.16;68.40;101708.51;107369;1283;1002609;-59
2024/01/21 00:24:06;;;;;;;30.70;15.10;;;;;;;1.17;68.47;101706.14;108063;1283;21983;-58
2024/01/21 00:26:32;;;;;;;24.10;13.10;;;;;;;1.19;68.39;101704.14;107410;1288;1002029;-60
2024/01/21 00:29:00;;;;;;;28.30;14.20;;;;;;;1.22;68.38;101708.06;107388;1280;1002582;-57
2024/01/21 00:31:27;;;;;;;24.40;13.30;;;;;;;1.23;68.53;101706.59;107332;1287;1002359;-59
2024/01/21 00:33:53;;;;;;;28.40;13.20;;;;;;;1.24;68.62;101703.68;108105;1288;22455;-59
2024/01/21 00:36:19;;;;;;;28.70;14.80;;;;;;;1.24;68.40;101704.73;108157;1284;21990;-57
2024/01/21 00:38:45;;;;;;;27.90;14.50;;;;;;;1.24;68.37;101702.30;107364;1281;1002265;-57
2024/01/21 00:41:14;;;;;;;28.40;15.50;;;;;;;1.23;68.41;101701.39;108182;1281;21990;-58
2024/01/21 00:43:40;;;;;;;26.30;13.60;;;;;;;1.21;68.29;101701.33;108102;1277;23728;-57
2024/01/21 00:46:06;;;;;;;27.10;15.40;;;;;;;1.19;68.36;101698.27;108151;1286;21983;-59
2024/01/21 00:48:31;;;;;;;28.40;15.40;;;;;;;1.20;68.21;101694.48;108118;1286;21992;-57
2024/01/21 00:50:57;;;;;;;26.90;13.70;;;;;;;1.22;68.53;101688.36;108131;1286;22019;-59
2024/01/21 00:53:22;;;;;;;28.60;14.40;;;;;;;1.23;68.51;101679.95;108110;1281;22056;-57
2024/01/21 00:55:48;;;;;;;26.50;14.70;;;;;;;1.18;68.23;101680.77;108151;1277;21995;-57
2024/01/21 00:58:13;;;;;;;29.50;15.40;;;;;;;1.09;68.45;101671.33;108157;1281;21993;-59
2024/01/21 01:00:39;;;;;;;26.60;15.30;;;;;;;1.06;68.65;101665.70;107390;1280;1003325;-59
2024/01/21 01:03:05;;;;;;;35.20;18.00;;;;;;;1.04;68.75;101664.02;107359;1284;1002305;-59
2024/01/21 01:05:30;;;;;;;71.00;28.50;;;;;;;1.03;68.59;101661.55;107425;1280;1002462;-60
2024/01/21 01:07:56;;;;;;;137.60;47.10;;;;;;;1.11;68.58;101663.48;107450;1284;1002631;-59
2024/01/21 01:10:21;;;;;;;96.10;34.30;;;;;;;1.14;68.36;101659.64;108139;1281;21989;-59
2024/01/21 01:12:47;;;;;;;90.80;35.20;;;;;;;1.10;68.04;101657.56;108144;1281;22009;-57
2024/01/21 01:15:13;;;;;;;72.40;32.40;;;;;;;1.06;68.06;101661.55;108110;1280;21988;-58
2024/01/21 01:17:38;;;;;;;72.50;33.10;;;;;;;1.05;68.18;101663.05;108108;1281;22851;-58
2024/01/21 01:20:05;;;;;;;44.50;22.20;;;;;;;1.07;68.35;101664.85;108083;1286;21994;-59
2024/01/21 01:22:31;;;;;;;38.60;19.60;;;;;;;1.09;68.66;101665.31;108138;1286;21987;-60
2024/01/21 01:24:56;;;;;;;38.80;20.20;;;;;;;1.10;68.65;101666.73;108122;1278;21998;-59
2024/01/21 01:27:23;;;;;;;49.10;22.00;;;;;;;1.08;68.33;101666.83;108127;1281;22017;-57
2024/01/21 01:29:48;;;;;;;52.20;25.00;;;;;;;1.04;68.37;101670.44;108156;1284;22032;-58
2024/01/21 01:32:14;;;;;;;44.90;20.70;;;;;;;0.98;68.44;101669.98;108138;1286;21987;-59
2024/01/21 01:34:39;;;;;;;30.20;16.10;;;;;;;0.95;68.56;101663.79;108229;1278;21973;-60
2024/01/21 01:37:05;;;;;;;30.40;16.40;;;;;;;0.92;69.00;101665.19;108115;1284;21999;-60
2024/01/21 01:39:31;;;;;;;29.20;14.80;;;;;;;0.88;68.86;101664.14;107389;1287;1002628;-57
2024/01/21 01:41:56;;;;;;;26.30;14.20;;;;;;;0.85;68.97;101666.06;107400;1280;1002498;-57
2024/01/21 01:44:22;;;;;;;29.80;16.00;;;;;;;0.81;69.09;101669.69;108129;1277;21995;-57
2024/01/21 01:46:47;;;;;;;34.30;16.10;;;;;;;0.78;69.07;101668.86;108131;1283;21951;-61
2024/01/21 01:49:14;;;;;;;35.70;18.40;;;;;;;0.78;69.02;101671.25;108190;1277;21989;-59
2024/01/21 01:51:40;;;;;;;31.50;18.20;;;;;;;0.75;68.69;101665.26;108185;1287;22454;-60
2024/01/21 01:54:06;;;;;;;37.30;19.50;;;;;;;0.71;68.68;101662.14;107436;1281;1002413;-58
2024/01/21 01:56:31;;;;;;;29.40;17.60;;;;;;;0.70;68.80;101664.16;107851;1287;21998;-58
2024/01/21 01:59:01;;;;;;;44.90;20.70;;;;;;;0.71;69.04;101664.70;108194;1287;21990;-60
2024/01/21 02:01:28;;;;;;;35.30;18.00;;;;;;;0.71;68.88;101664.39;108191;1287;23149;-60
2024/01/21 02:03:55;;;;;;;28.40;15.00;;;;;;;0.73;68.99;101667.95;108188;1277;22116;-60
2024/01/21 02:06:21;;;;;;;26.80;15.50;;;;;;;0.74;68.88;101674.34;108140;1287;21986;-58
2024/01/21 02:08:46;;;;;;;28.90;15.90;;;;;;;0.71;69.06;101679.79;108208;1287;21986;-59
2024/01/21 02:11:12;;;;;;;26.30;14.00;;;;;;;0.71;69.20;101680.59;108174;1287;22006;-58
2024/01/21 02:13:37;;;;;;;27.70;15.30;;;;;;;0.71;69.02;101684.40;108229;1287;21987;-59
2024/01/21 02:16:03;;;;;;;28.00;15.30;;;;;;;0.72;68.90;101686.70;107392;1280;1002944;-58
2024/01/21 02:18:30;;;;;;;24.10;14.20;;;;;;;0.73;69.07;101691.06;108195;1281;21991;-59
2024/01/21 02:20:55;;;;;;;26.80;14.40;;;;;;;0.74;69.03;101695.28;108267;1287;22024;-58
2024/01/21 02:23:21;;;;;;;27.60;14.60;;;;;;;0.74;69.05;101691.66;108174;1283;21987;-59
2024/01/21 02:25:46;;;;;;;23.70;13.40;;;;;;;0.75;69.05;101690.64;107393;1277;1002781;-58
2024/01/21 02:28:12;;;;;;;26.30;14.40;;;;;;;0.74;68.96;101688.35;108157;1277;22014;-59
2024/01/21 02:30:42;;;;;;;30.40;15.10;;;;;;;0.73;68.91;101689.20;108144;1280;21999;-59
2024/01/21 02:33:08;;;;;;;18.20;9.60;;;;;;;0.74;68.94;101683.02;108219;1276;22044;-58
2024/01/21 02:35:36;;;;;;;23.30;12.40;;;;;;;0.73;68.68;101684.69;108196;1284;21962;-57
2024/01/21 02:38:03;;;;;;;24.60;14.30;;;;;;;0.74;68.73;101685.77;108125;1288;22002;-57
2024/01/21 02:40:29;;;;;;;25.50;12.60;;;;;;;0.79;68.36;101681.50;108088;1281;22029;-59
2024/01/21 02:42:55;;;;;;;24.10;13.50;;;;;;;0.80;68.15;101682.23;108108;1283;21992;-57
2024/01/21 02:45:21;;;;;;;22.60;12.20;;;;;;;0.78;68.12;101682.34;108139;1283;21987;-59
2024/01/21 02:47:46;;;;;;;25.10;13.10;;;;;;;0.79;68.22;101689.45;108105;1284;22013;-59
2024/01/21 02:50:12;;;;;;;21.30;12.30;;;;;;;0.81;68.29;101692.14;108073;1286;22000;-57
2024/01/21 02:52:37;;;;;;;23.30;11.90;;;;;;;0.84;68.20;101695.08;108098;1277;21978;-57
2024/01/21 02:55:03;;;;;;;19.10;11.30;;;;;;;0.87;68.12;101693.84;107315;1288;1002924;-59
2024/01/21 02:57:31;;;;;;;19.30;12.10;;;;;;;0.93;68.03;101697.02;108088;1288;21998;-58
2024/01/21 02:59:57;;;;;;;20.80;11.30;;;;;;;0.96;67.94;101702.89;107346;1277;1002655;-59
2024/01/21 03:02:23;;;;;;;24.10;11.80;;;;;;;0.97;67.77;101721.79;107387;1277;1002369;-59
2024/01/21 03:04:48;;;;;;;21.40;10.80;;;;;;;0.92;67.86;101725.33;108091;1288;21989;-59
2024/01/21 03:07:14;;;;;;;19.70;10.60;;;;;;;0.96;68.08;101725.02;108092;1283;21987;-58
2024/01/21 03:09:40;;;;;;;17.60;9.90;;;;;;;1.04;68.10;101723.98;108096;1284;22002;-58
2024/01/21 03:12:06;;;;;;;17.20;9.80;;;;;;;1.09;67.92;101722.86;108110;1288;21994;-60
2024/01/21 03:14:32;;;;;;;23.30;10.50;;;;;;;1.14;67.87;101719.13;107362;1287;1002903;-59
2024/01/21 03:16:58;;;;;;;18.30;10.20;;;;;;;1.16;67.76;101719.38;108105;1278;21992;-57
2024/01/21 03:19:23;;;;;;;19.50;10.50;;;;;;;1.12;67.80;101723.54;107322;1285;1004010;-59
2024/01/21 03:21:49;;;;;;;17.90;10.40;;;;;;;1.13;67.65;101725.11;108118;1277;22457;-59
2024/01/21 03:24:14;;;;;;;16.40;9.60;;;;;;;1.11;67.41;101730.03;108103;1280;23765;-59
2024/01/21 03:26:40;;;;;;;19.40;10.10;;;;;;;1.10;67.47;101731.24;108213;1288;21988;-59
2024/01/21 03:29:05;;;;;;;20.70;10.20;;;;;;;1.12;67.49;101731.98;108070;1284;22031;-58
2024/01/21 03:31:31;;;;;;;19.50;10.60;;;;;;;1.13;67.42;101734.27;108087;1283;22170;-59
2024/01/21 03:33:57;;;;;;;18.10;10.30;;;;;;;1.13;67.40;101732.91;108081;1288;21993;-58
2024/01/21 03:36:22;;;;;;;19.10;10.80;;;;;;;1.17;67.49;101734.99;108098;1288;21990;-57
2024/01/21 03:38:50;;;;;;;19.90;10.50;;;;;;;1.20;67.62;101737.21;107364;1277;1002438;-59
2024/01/21 03:41:17;;;;;;;21.70;10.90;;;;;;;1.24;67.72;101737.56;108100;1288;21990;-59
2024/01/21 03:43:43;;;;;;;17.90;9.60;;;;;;;1.27;67.54;101737.16;108107;1284;21992;-59
2024/01/21 03:46:08;;;;;;;18.30;9.60;;;;;;;1.29;67.53;101739.73;108063;1277;21990;-58
2024/01/21 03:48:34;;;;;;;18.70;9.60;;;;;;;1.32;67.45;101738.14;108090;1283;21987;-60
2024/01/21 03:50:59;;;;;;;14.80;9.10;;;;;;;1.32;67.25;101738.68;108087;1280;22027;-58
2024/01/21 03:53:25;;;;;;;20.20;10.20;;;;;;;1.33;67.16;101736.11;107362;1278;1003016;-60
2024/01/21 03:55:50;;;;;;;19.90;9.80;;;;;;;1.34;67.03;101742.72;107371;1284;1002577;-61
2024/01/21 03:58:16;;;;;;;17.70;8.80;;;;;;;1.36;67.09;101743.15;108097;1288;22002;-61
2024/01/21 04:00:42;;;;;;;15.80;8.50;;;;;;;1.37;66.87;101736.29;108110;1286;22018;-59
2024/01/21 04:03:07;;;;;;;14.50;8.70;;;;;;;1.39;66.89;101738.44;108128;1283;21969;-59
2024/01/21 04:05:33;;;;;;;17.10;8.40;;;;;;;1.41;66.87;101737.50;108131;1288;21997;-60
2024/01/21 04:07:59;;;;;;;12.30;6.90;;;;;;;1.42;66.54;101737.36;108097;1288;21995;-60
2024/01/21 04:10:25;;;;;;;15.40;7.80;;;;;;;1.42;66.41;101735.66;107332;1283;1002812;-59
2024/01/21 04:12:51;;;;;;;14.30;8.10;;;;;;;1.42;66.21;101737.57;108087;1277;22021;-60
2024/01/21 04:15:16;;;;;;;15.50;7.90;;;;;;;1.41;66.06;101743.92;108073;1282;21982;-60
2024/01/21 04:17:42;;;;;;;17.40;7.70;;;;;;;1.38;65.97;101747.77;107353;1288;1002608;-59
2024/01/21 04:20:09;;;;;;;15.30;7.20;;;;;;;1.42;66.17;101753.67;107337;1283;1004359;-58
2024/01/21 04:22:35;;;;;;;12.80;6.10;;;;;;;1.49;66.44;101764.86;108140;1280;21990;-59
2024/01/21 04:25:00;;;;;;;12.80;6.60;;;;;;;1.54;66.45;101773.41;108062;1277;21995;-59
2024/01/21 04:27:26;;;;;;;17.00;7.80;;;;;;;1.57;66.45;101782.02;108074;1283;21987;-59
2024/01/21 04:29:51;;;;;;;14.20;6.80;;;;;;;1.60;66.48;101790.45;108099;1284;22050;-60
2024/01/21 04:32:17;;;;;;;11.60;6.40;;;;;;;1.61;66.32;101795.19;107385;1286;1002867;-59
2024/01/21 04:34:43;;;;;;;14.10;7.10;;;;;;;1.58;65.85;101797.98;108101;1277;21993;-60
2024/01/21 04:37:08;;;;;;;13.10;6.90;;;;;;;1.57;65.77;101796.73;108143;1277;21992;-59
2024/01/21 04:39:34;;;;;;;12.50;6.00;;;;;;;1.60;65.87;101795.98;108108;1283;22083;-58
2024/01/21 04:41:59;;;;;;;13.80;7.10;;;;;;;1.62;65.90;101797.46;107429;1284;1002749;-59
2024/01/21 04:44:25;;;;;;;14.20;7.60;;;;;;;1.64;65.88;101799.80;108144;1288;21999;-60
2024/01/21 04:46:51;;;;;;;12.70;6.90;;;;;;;1.65;65.78;101804.73;108109;1288;22011;-61
2024/01/21 04:49:16;;;;;;;14.70;8.00;;;;;;;1.68;65.76;101812.30;107397;1284;1003350;-60
2024/01/21 04:51:43;;;;;;;13.60;7.10;;;;;;;1.72;65.83;101813.03;108121;1284;22003;-58
2024/01/21 04:54:09;;;;;;;13.90;7.40;;;;;;;1.78;66.18;101815.52;108109;1288;22163;-59
2024/01/21 04:56:36;;;;;;;14.30;6.90;;;;;;;1.84;66.51;101813.88;108096;1277;21982;-60
2024/01/21 04:59:02;;;;;;;13.20;6.40;;;;;;;1.89;66.64;101817.42;108134;1288;21994;-61
2024/01/21 05:01:28;;;;;;;15.20;7.90;;;;;;;1.94;66.63;101823.02;108124;1283;23064;-60
2024/01/21 05:03:53;;;;;;;12.70;7.50;;;;;;;1.99;66.45;101824.79;108156;1283;21997;-59
2024/01/21 05:06:19;;;;;;;11.90;6.70;;;;;;;2.03;66.63;101825.67;108119;1288;21987;-60
2024/01/21 05:08:44;;;;;;;15.80;8.10;;;;;;;2.06;66.59;101827.05;108141;1277;21997;-58
2024/01/21 05:11:13;;;;;;;14.80;7.90;;;;;;;2.09;66.46;101826.12;108119;1288;22008;-59
2024/01/21 05:13:38;;;;;;;17.80;8.10;;;;;;;2.11;66.52;101828.48;107394;1285;1006144;-57
2024/01/21 05:16:04;;;;;;;13.70;7.30;;;;;;;2.11;66.08;101832.47;107376;1287;1002737;-59
2024/01/21 05:18:30;;;;;;;18.40;9.00;;;;;;;2.16;66.30;101835.45;108130;1288;21989;-59
2024/01/21 05:20:55;;;;;;;14.80;8.00;;;;;;;2.18;66.35;101836.39;107369;1283;1002999;-58
2024/01/21 05:23:21;;;;;;;17.50;8.60;;;;;;;2.19;66.25;101841.34;108107;1288;22027;-59
2024/01/21 05:25:50;;;;;;;17.60;8.10;;;;;;;2.23;66.59;101840.25;108155;1288;22001;-59
2024/01/21 05:28:16;;;;;;;15.90;7.70;;;;;;;2.28;66.70;101840.11;107383;1277;1002288;-58
2024/01/21 05:30:42;;;;;;;15.50;7.90;;;;;;;2.32;66.92;101846.90;108147;1286;21984;-59
2024/01/21 05:33:07;;;;;;;13.40;7.90;;;;;;;2.29;66.96;101849.91;108098;1288;21988;-59
2024/01/21 05:35:33;;;;;;;19.30;7.70;;;;;;;2.31;67.24;101855.00;108109;1284;21995;-58
2024/01/21 05:37:58;;;;;;;14.20;7.40;;;;;;;2.35;67.08;101853.60;108095;1288;21993;-59
2024/01/21 05:40:25;;;;;;;17.20;8.00;;;;;;;2.38;67.21;101857.23;108000;1288;22015;-60
2024/01/21 05:42:51;;;;;;;15.80;7.90;;;;;;;2.42;67.51;101861.20;107952;1287;22028;-58
2024/01/21 05:45:16;;;;;;;16.30;8.90;;;;;;;2.47;67.82;101867.65;108124;1287;22000;-58
2024/01/21 05:47:42;;;;;;;15.40;7.90;;;;;;;2.53;67.95;101871.20;108127;1277;21987;-58
2024/01/21 05:50:08;;;;;;;15.60;8.60;;;;;;;2.54;67.75;101876.13;108139;1285;22027;-59
2024/01/21 05:52:35;;;;;;;14.50;7.70;;;;;;;2.50;67.17;101879.23;108106;1277;21990;-60
2024/01/21 05:55:00;;;;;;;17.70;8.80;;;;;;;2.51;67.24;101880.67;108156;1288;22000;-58
2024/01/21 05:57:26;;;;;;;16.60;8.90;;;;;;;2.49;67.02;101881.77;108119;1288;22028;-58
2024/01/21 05:59:51;;;;;;;16.40;9.00;;;;;;;2.47;67.11;101882.91;108137;1287;22002;-59
2024/01/21 06:02:18;;;;;;;22.20;9.40;;;;;;;2.39;67.20;101878.73;108099;1284;22094;-57
2024/01/21 06:04:43;;;;;;;18.20;8.80;;;;;;;2.39;67.02;101876.50;108091;1284;21996;-59
2024/01/21 06:07:09;;;;;;;17.90;9.80;;;;;;;2.32;66.69;101876.19;107361;1287;1002815;-58
2024/01/21 06:09:35;;;;;;;16.40;9.70;;;;;;;2.41;66.60;101874.52;107409;1280;1002497;-59
2024/01/21 06:12:00;;;;;;;15.30;8.70;;;;;;;2.36;65.99;101878.96;108100;1287;21993;-60
2024/01/21 06:14:26;;;;;;;19.90;9.60;;;;;;;2.42;66.31;101879.57;108106;1288;22006;-58
2024/01/21 06:16:52;;;;;;;16.90;8.90;;;;;;;2.45;66.55;101877.97;107712;1288;1002545;-59
2024/01/21 06:19:18;;;;;;;16.70;9.50;;;;;;;2.43;66.74;101881.01;107356;1277;1003886;-59
2024/01/21 06:21:43;;;;;;;18.90;10.90;;;;;;;2.46;66.85;101882.54;108120;1287;22052;-59
2024/01/21 06:24:11;;;;;;;20.70;11.50;;;;;;;2.44;67.17;101884.50;108119;1287;23242;-58
2024/01/21 06:26:37;;;;;;;31.60;14.30;;;;;;;2.39;67.65;101887.22;108247;1289;22000;-59
2024/01/21 06:29:04;;;;;;;56.30;25.80;;;;;;;2.39;67.80;101885.86;108095;1286;22456;-60
2024/01/21 06:31:30;;;;;;;38.80;19.10;;;;;;;2.39;68.16;101887.42;108086;1288;21998;-59
2024/01/21 06:33:55;;;;;;;17.80;9.80;;;;;;;2.27;67.85;101890.52;108074;1284;23116;-59
2024/01/21 06:36:22;;;;;;;16.30;9.00;;;;;;;2.34;67.62;101886.84;108089;1287;21989;-60
2024/01/21 06:38:49;;;;;;;16.50;8.80;;;;;;;2.41;67.21;101887.67;107368;1280;1002880;-60
2024/01/21 06:41:15;;;;;;;15.60;9.40;;;;;;;2.41;67.22;101890.29;107900;1286;21998;-58
2024/01/21 06:43:41;;;;;;;21.00;11.40;;;;;;;2.42;67.43;101894.67;108159;1287;23736;-59
2024/01/21 06:46:08;;;;;;;47.50;24.80;;;;;;;2.50;67.68;101895.34;108127;1283;22020;-59
2024/01/21 06:48:34;;;;;;;28.20;16.40;;;;;;;2.56;67.54;101894.59;108147;1288;23044;-59
2024/01/21 06:51:01;;;;;;;106.30;48.50;;;;;;;2.59;67.52;101892.96;108113;1288;21994;-61
2024/01/21 06:53:26;;;;;;;140.10;56.60;;;;;;;2.58;67.68;101890.34;108070;1288;22007;-58
2024/01/21 06:55:52;;;;;;;66.10;33.30;;;;;;;2.61;67.85;101898.45;108079;1288;21998;-61
2024/01/21 06:58:17;;;;;;;24.60;13.10;;;;;;;2.69;68.13;101898.96;108134;1278;21998;-61
2024/01/21 07:00:45;;;;;;;20.80;10.10;;;;;;;2.78;68.23;101897.79;108189;1278;21990;-59
2024/01/21 07:03:10;;;;;;;17.00;8.70;;;;;;;2.80;68.04;101901.20;107330;1288;1003049;-59
2024/01/21 07:05:36;;;;;;;16.40;9.00;;;;;;;2.87;68.24;101901.63;107393;1283;1002844;-60
2024/01/21 07:08:02;;;;;;;15.20;8.10;;;;;;;2.85;68.53;101902.09;107406;1283;1002613;-60
2024/01/21 07:10:28;;;;;;;17.50;8.50;;;;;;;2.69;69.08;101905.55;108182;1277;21990;-58
2024/01/21 07:12:55;;;;;;;31.70;16.90;;;;;;;2.77;69.55;101909.39;108080;1288;21995;-59
2024/01/21 07:15:21;;;;;;;21.00;12.40;;;;;;;2.85;69.50;101910.96;108104;1284;21990;-59
2024/01/21 07:17:47;;;;;;;17.30;9.20;;;;;;;2.93;69.54;101913.89;108089;1283;22001;-60
2024/01/21 07:20:13;;;;;;;17.30;9.40;;;;;;;2.94;69.91;101911.33;108062;1288;21994;-61
2024/01/21 07:22:38;;;;;;;25.30;12.60;;;;;;;2.99;70.02;101911.74;108116;1289;23131;-59
2024/01/21 07:25:04;;;;;;;21.00;12.20;;;;;;;3.05;70.36;101909.17;108114;1288;22000;-61
2024/01/21 07:27:30;;;;;;;29.40;16.90;;;;;;;3.17;70.12;101912.83;108080;1284;22033;-60
2024/01/21 07:29:56;;;;;;;17.10;10.70;;;;;;;3.32;70.06;101910.84;107916;1285;23059;-60
2024/01/21 07:32:22;;;;;;;19.00;10.70;;;;;;;3.43;69.95;101911.13;108111;1288;21992;-60
2024/01/21 07:34:48;;;;;;;23.70;11.80;;;;;;;3.48;70.15;101911.16;108163;1284;21998;-61
2024/01/21 07:37:13;;;;;;;18.50;9.70;;;;;;;3.48;70.11;101910.12;107368;1278;1002598;-59
2024/01/21 07:39:39;;;;;;;22.00;10.60;;;;;;;3.49;69.96;101910.17;107301;1286;1002397;-59
2024/01/21 07:42:04;;;;;;;16.80;9.60;;;;;;;3.63;70.00;101916.81;107338;1286;1002920;-61
2024/01/21 07:44:30;;;;;;;20.90;13.10;;;;;;;3.74;69.70;101918.11;107912;1281;287884;-61
2024/01/21 07:46:56;;;;;;;22.30;12.80;;;;;;;3.80;69.69;101922.16;108258;1286;22038;-61
2024/01/21 07:49:21;;;;;;;25.40;14.70;;;;;;;3.87;69.68;101918.13;108131;1283;21993;-59
2024/01/21 07:51:47;;;;;;;28.40;15.10;;;;;;;3.93;69.37;101920.46;108300;1286;22100;-61
2024/01/21 07:54:13;;;;;;;21.80;12.60;;;;;;;4.00;69.37;101920.88;108122;1281;23056;-61
2024/01/21 07:56:39;;;;;;;18.90;11.50;;;;;;;4.07;69.78;101917.50;108191;1276;23057;-61
2024/01/21 07:59:05;;;;;;;14.70;8.30;;;;;;;4.14;69.88;101918.33;108116;1277;22012;-56
2024/01/21 08:01:30;;;;;;;15.40;8.20;;;;;;;4.20;69.50;101916.77;108098;1286;22031;-56
2024/01/21 08:03:56;;;;;;;14.40;8.30;;;;;;;4.24;69.50;101919.20;108083;1281;22020;-58
2024/01/21 08:06:22;;;;;;;13.00;7.20;;;;;;;4.29;69.36;101921.66;108063;1281;22084;-58
2024/01/21 08:08:47;;;;;;;16.40;8.40;;;;;;;4.32;68.99;101924.71;107430;1281;1002960;-58
2024/01/21 08:11:13;;;;;;;13.00;8.00;;;;;;;4.36;69.18;101920.34;108190;1281;22100;-60
2024/01/21 08:13:38;;;;;;;12.80;7.40;;;;;;;4.45;69.56;101919.29;108227;1284;21992;-59
2024/01/21 08:16:05;;;;;;;14.20;7.40;;;;;;;4.60;70.51;101922.29;108100;1282;21992;-60
2024/01/21 08:18:32;;;;;;;13.10;7.60;;;;;;;4.79;70.92;101923.32;108069;1285;23052;-61
2024/01/21 08:20:57;;;;;;;12.70;7.20;;;;;;;4.98;70.89;101929.06;108041;1286;21989;-61
2024/01/21 08:23:24;;;;;;;15.00;7.70;;;;;;;5.16;70.98;101933.52;108306;1284;22092;-60
2024/01/21 08:25:50;;;;;;;12.70;7.80;;;;;;;5.33;70.44;101930.92;107439;1286;1003044;-60
2024/01/21 08:28:16;;;;;;;13.80;7.50;;;;;;;5.41;69.24;101928.42;107407;1277;1002526;-59
2024/01/21 08:30:41;;;;;;;13.80;9.00;;;;;;;5.47;68.78;101922.73;107324;1285;1002594;-61
2024/01/21 08:33:08;;;;;;;15.70;8.90;;;;;;;5.51;68.84;101923.19;107387;1284;1004213;-60
2024/01/21 08:35:33;;;;;;;17.30;10.40;;;;;;;5.59;70.05;101921.88;108119;1278;21999;-61
2024/01/21 08:38:00;;;;;;;17.40;9.80;;;;;;;5.72;70.31;101923.70;108081;1286;22006;-61
2024/01/21 08:40:25;;;;;;;14.00;8.30;;;;;;;5.83;69.94;101919.70;108076;1287;21997;-61
2024/01/21 08:42:51;;;;;;;12.90;8.00;;;;;;;5.89;68.68;101925.45;108088;1288;21992;-61
2024/01/21 08:45:16;;;;;;;13.30;8.10;;;;;;;5.95;68.98;101925.83;108126;1283;22031;-60
2024/01/21 08:47:42;;;;;;;15.10;8.50;;;;;;;5.99;68.47;101923.86;108075;1288;21990;-60
2024/01/21 08:50:08;;;;;;;13.00;7.70;;;;;;;5.99;67.54;101922.65;108121;1288;21993;-60
2024/01/21 08:52:34;;;;;;;17.80;9.10;;;;;;;5.94;67.33;101918.67;107380;1288;1002469;-61
2024/01/21 08:54:59;;;;;;;13.40;8.20;;;;;;;5.92;68.10;101917.71;107339;1288;1002949;-61
2024/01/21 08:57:25;;;;;;;14.40;7.60;;;;;;;5.93;68.25;101914.25;108128;1288;21997;-60
2024/01/21 08:59:51;;;;;;;14.10;8.00;;;;;;;5.94;68.04;101915.35;108119;1285;21997;-60
2024/01/21 09:02:18;;;;;;;15.20;8.30;;;;;;;5.94;67.63;101917.95;108088;1288;22001;-60
2024/01/21 09:04:44;;;;;;;16.60;8.80;;;;;;;5.93;67.95;101918.63;107362;1281;1002728;-59
2024/01/21 09:07:09;;;;;;;18.40;9.10;;;;;;;5.96;68.24;101918.17;108095;1288;22001;-60
2024/01/21 09:09:35;;;;;;;17.50;9.50;;;;;;;6.00;68.98;101917.13;107971;1276;21984;-59
2024/01/21 09:12:01;;;;;;;17.00;9.50;;;;;;;6.05;69.33;101918.85;107332;1288;1003047;-59
2024/01/21 09:14:27;;;;;;;12.30;8.70;;;;;;;6.09;69.43;101918.97;108092;1283;22107;-58
2024/01/21 09:16:53;;;;;;;15.00;8.40;;;;;;;6.22;70.07;101921.44;107999;1288;21980;-59
2024/01/21 09:19:18;;;;;;;15.50;9.20;;;;;;;6.20;69.22;101923.15;108079;1289;22140;-59
2024/01/21 09:21:44;;;;;;;14.40;8.80;;;;;;;6.26;68.51;101925.41;108084;1288;22020;-60
2024/01/21 09:24:11;;;;;;;16.60;8.80;;;;;;;6.31;68.95;101921.20;108103;1287;21988;-59
2024/01/21 09:26:37;;;;;;;17.20;8.70;;;;;;;6.40;69.36;101922.35;107409;1284;1003185;-60
2024/01/21 09:29:03;;;;;;;13.20;8.50;;;;;;;6.41;69.02;101924.98;108084;1288;22030;-60
2024/01/21 09:31:29;;;;;;;15.10;8.40;;;;;;;6.40;68.17;101923.04;108118;1289;21994;-59
2024/01/21 09:33:56;;;;;;;14.20;8.10;;;;;;;6.41;67.87;101924.80;108023;1288;22000;-60
2024/01/21 09:36:23;;;;;;;15.60;8.50;;;;;;;6.31;66.93;101925.05;108133;1281;23065;-60
2024/01/21 09:38:51;;;;;;;14.60;8.00;;;;;;;6.47;68.46;101930.58;107416;1283;1002022;-59
2024/01/21 09:41:38;;;;;;;12.80;7.80;;;;;;;6.51;68.18;101928.95;108184;1278;21995;-60
2024/01/21 09:44:04;;;;;;;11.30;6.80;;;;;;;6.77;70.00;101929.13;108081;1287;21994;-60
2024/01/21 09:46:30;;;;;;;14.60;8.00;;;;;;;6.94;69.58;101924.20;108189;1287;22019;-61
2024/01/21 09:48:57;;;;;;;12.70;7.40;;;;;;;7.00;68.60;101920.38;108138;1287;21998;-60
2024/01/21 09:51:23;;;;;;;13.80;8.50;;;;;;;6.97;67.65;101922.38;108203;1281;21991;-60
2024/01/21 09:53:49;;;;;;;16.70;9.20;;;;;;;6.92;67.54;101917.52;108119;1280;21992;-60
2024/01/21 09:56:15;;;;;;;14.30;8.70;;;;;;;7.02;67.95;101918.14;108178;1287;21994;-61
2024/01/21 09:58:44;;;;;;;13.00;8.00;;;;;;;7.10;67.93;101911.89;108137;1287;21998;-60
2024/01/21 10:01:10;;;;;;;13.10;8.20;;;;;;;7.18;68.29;101911.94;108149;1287;21996;-60
2024/01/21 10:03:36;;;;;;;14.60;8.50;;;;;;;7.29;68.54;101911.35;108154;1275;21994;-60
2024/01/21 10:06:01;;;;;;;10.70;7.30;;;;;;;7.42;68.80;101910.11;108108;1281;21999;-60
2024/01/21 10:08:28;;;;;;;14.70;8.20;;;;;;;7.60;68.72;101912.29;108131;1287;22001;-60
2024/01/21 10:10:54;;;;;;;15.50;7.10;;;;;;;7.65;67.03;101911.38;108238;1285;21994;-61
2024/01/21 10:13:20;;;;;;;12.80;7.70;;;;;;;7.61;65.87;101913.91;108198;1287;21999;-60
2024/01/21 10:15:45;;;;;;;14.20;8.80;;;;;;;7.51;64.77;101917.13;108146;1284;21991;-61
2024/01/21 10:18:11;;;;;;;14.90;8.30;;;;;;;7.69;65.80;101917.41;108201;1287;21995;-60
2024/01/21 10:20:37;;;;;;;11.30;6.20;;;;;;;7.73;65.24;101922.39;108165;1280;22000;-59
2024/01/21 10:23:10;;;;;;;12.20;7.40;;;;;;;7.79;65.22;101923.40;108133;1281;22027;-60
2024/01/21 10:25:38;;;;;;;12.40;6.50;;;;;;;7.82;64.06;101923.31;108183;1287;22008;-60
2024/01/21 10:28:04;;;;;;;13.60;8.00;;;;;;;7.95;64.72;101923.09;108238;1277;21997;-60
2024/01/21 10:30:30;;;;;;;11.40;7.50;;;;;;;8.05;65.28;101924.18;107315;1278;1002274;-60
2024/01/21 10:32:55;;;;;;;10.80;7.50;;;;;;;8.07;64.33;101931.05;108093;1277;21995;-60
2024/01/21 10:35:21;;;;;;;13.30;6.90;;;;;;;7.95;62.52;101931.98;107369;1287;1002878;-60
2024/01/21 10:37:47;;;;;;;14.80;7.90;;;;;;;7.82;61.74;101935.02;107519;1283;1003107;-60
2024/01/21 10:40:13;;;;;;;12.00;7.20;;;;;;;7.70;61.31;101941.02;108162;1286;21996;-60
2024/01/21 10:42:39;;;;;;;14.20;6.70;;;;;;;7.92;63.17;101940.67;108117;1284;21997;-60
2024/01/21 10:45:05;;;;;;;12.80;7.80;;;;;;;8.08;63.39;101938.06;108069;1284;22459;-60
2024/01/21 10:47:34;;;;;;;12.50;7.40;;;;;;;8.03;61.84;101935.33;108173;1280;21990;-60
2024/01/21 10:50:01;;;;;;;11.10;7.10;;;;;;;7.99;61.18;101936.29;108221;1280;21990;-60
2024/01/21 10:52:27;;;;;;;12.00;7.10;;;;;;;7.98;61.01;101936.77;108301;1286;21994;-61
2024/01/21 10:54:54;;;;;;;13.00;6.90;;;;;;;7.96;61.29;101939.53;108192;1286;24314;-61
2024/01/21 10:57:22;;;;;;;14.10;8.10;;;;;;;8.13;62.85;101934.33;108275;1286;23723;-60
2024/01/21 10:59:49;;;;;;;12.00;7.60;;;;;;;8.18;62.08;101940.91;108159;1286;21993;-61
2024/01/21 11:02:14;;;;;;;15.90;7.90;;;;;;;8.12;61.12;101938.14;108050;1286;23045;-60
2024/01/21 11:04:41;;;;;;;11.70;6.50;;;;;;;8.24;61.34;101939.30;108120;1286;21988;-60